KABI/ABI METAR and TAF weather

Enter ICAO airport designator
Station Type Date Time Source
KABI METAR 2018/07/21 22:52 UTC NOAA

KABI 212252Z 14010KT 10SM CLR 41/09 A2994 RMK AO2 SLP105 T04060089


Station Type Date Time Source
KABI Decoded METAR 2018/07/21 22:52 UTC NOAA

ABILENE REGIONAL AIRPORT, TX, United States (KABI) 32-25N 099-41W 548M
Jul 21, 2018 - 06:52 PM EDT / 2018.07.21 2252 UTC
Wind: from the SE (140 degrees) at 12 MPH (10 KT):0
Visibility: 10 mile(s):0
Sky conditions: clear
Temperature: 105.1 F (40.6 C)
Dew Point: 48.0 F (8.9 C)
Relative Humidity: 14%
Pressure (altimeter): 29.94 in. Hg (1013 hPa)
ob: KABI 212252Z 14010KT 10SM CLR 41/09 A2994 RMK AO2 SLP105 T04060089
cycle: 23

Station Type Date Time Source
KABI TAF 2018/07/21 18:30 UTC NOAA

TAF KABI 211729Z 2118/2218 21010KT P6SM SKC
FM212100 16011G18KT P6SM SKC
FM220900 19006KT P6SM SKC
FM221500 22011KT P6SM SKC


Example: see airport list